Time;durP1;ratioP1;P1;durP2;ratioP2;P2;SDS_P1;SDS_P2;PMS_P1;PMS_P2;Temp;Humidity;BMP_temperature;BMP_pressure;BME280_temperature;BME280_humidity;BME280_pressure;Samples;Min_cycle;Max_cycle;Signal;HPM_P1;HPM_P2
2022/05/22 00:02:03;;;;;;;;;;;14.70;78.60;;;;;;5031657;28;19921;-82
2022/05/22 00:04:28;;;;;;;;;;;14.70;72.50;;;;;;5035037;28;19920;-82
2022/05/22 00:06:54;;;;;;;;;;;14.70;99.90;;;;;;5030777;28;19944;-82
2022/05/22 00:09:20;;;;;;;;;;;14.70;99.90;;;;;;5029031;28;19913;-82
2022/05/22 00:11:45;;;;;;;;;;;14.60;99.90;;;;;;5032194;28;19913;-81
2022/05/22 00:14:11;;;;;;;;;;;14.60;99.90;;;;;;5033926;28;19916;-82
2022/05/22 00:16:40;;;;;;;;;;;14.50;1.00;;;;;;5031252;28;19917;-82
2022/05/22 00:19:10;;;;;;;;;;;14.40;99.90;;;;;;5030700;28;19921;-82
2022/05/22 00:21:36;;;;;;;;;;;14.30;1.00;;;;;;5032000;28;19913;-82
2022/05/22 00:24:02;;;;;;;;;;;14.30;79.80;;;;;;5031862;28;19919;-82
2022/05/22 00:26:27;;;;;;;;;;;14.20;16.30;;;;;;5033341;28;19996;-81
2022/05/22 00:28:53;;;;;;;;;;;14.20;99.90;;;;;;5031219;28;20079;-82
2022/05/22 00:31:18;;;;;;;;;;;14.20;99.90;;;;;;5033878;28;20008;-82
2022/05/22 00:33:44;;;;;;;;;;;14.20;99.90;;;;;;5031499;28;19947;-82
2022/05/22 00:36:09;;;;;;;;;;;14.20;99.90;;;;;;5029226;28;20298;-81
2022/05/22 00:38:35;;;;;;;;;;;14.20;99.90;;;;;;5029781;28;19913;-82
2022/05/22 00:41:01;;;;;;;;;;;14.20;99.90;;;;;;5026313;28;19917;-82
2022/05/22 00:43:31;;;;;;;;;;;14.20;99.90;;;;;;5032966;28;19913;-82
2022/05/22 00:45:57;;;;;;;;;;;14.20;99.90;;;;;;5030247;28;20037;-81
2022/05/22 00:48:23;;;;;;;;;;;14.20;99.90;;;;;;5033754;28;20464;-82
2022/05/22 00:50:50;;;;;;;;;;;14.10;99.90;;;;;;5031517;28;20015;-81
2022/05/22 00:53:15;;;;;;;;;;;14.10;1.00;;;;;;5034154;28;19959;-82
2022/05/22 00:55:41;;;;;;;;;;;14.10;99.90;;;;;;5027923;28;20417;-82
2022/05/22 00:58:12;;;;;;;;;;;14.10;1.00;;;;;;5032232;28;19924;-82
2022/05/22 01:00:37;;;;;;;;;;;14.00;24.60;;;;;;5032136;28;19913;-82
2022/05/22 01:05:48;;;;;;;;;;;13.90;99.90;;;;;;5032480;28;19920;-82
2022/05/22 01:08:14;;;;;;;;;;;13.90;99.90;;;;;;5029699;28;19918;-82
2022/05/22 01:10:42;;;;;;;;;;;13.90;99.90;;;;;;5033316;28;19935;-81
2022/05/22 01:13:08;;;;;;;;;;;13.80;99.90;;;;;;5033477;28;19959;-82
2022/05/22 01:15:33;;;;;;;;;;;13.80;99.90;;;;;;5034006;28;19921;-81
2022/05/22 01:17:59;;;;;;;;;;;13.70;1.00;;;;;;5030939;28;19971;-82
2022/05/22 01:20:24;;;;;;;;;;;13.80;1.00;;;;;;5031924;28;19919;-82
2022/05/22 01:22:50;;;;;;;;;;;13.70;1.00;;;;;;5033118;28;19913;-82
2022/05/22 01:25:15;;;;;;;;;;;13.70;1.00;;;;;;5033612;28;19967;-81
2022/05/22 01:27:41;;;;;;;;;;;13.70;99.90;;;;;;5030867;28;20405;-81
2022/05/22 01:30:16;;;;;;;;;;;13.70;1.00;;;;;;5033719;28;19914;-81
2022/05/22 01:32:43;;;;;;;;;;;13.60;1.00;;;;;;5031739;28;19932;-82
2022/05/22 01:35:09;;;;;;;;;;;13.60;1.00;;;;;;5031646;28;19923;-81
2022/05/22 01:37:34;;;;;;;;;;;13.50;1.00;;;;;;5033179;28;19997;-82
2022/05/22 01:40:00;;;;;;;;;;;13.50;99.90;;;;;;5032571;28;19916;-82
2022/05/22 01:42:25;;;;;;;;;;;13.50;99.90;;;;;;5027954;28;20340;-82
2022/05/22 01:44:51;;;;;;;;;;;13.50;99.90;;;;;;5031357;28;20354;-82
2022/05/22 01:47:16;;;;;;;;;;;13.50;47.50;;;;;;5033137;28;19913;-82
2022/05/22 01:49:42;;;;;;;;;;;13.40;1.00;;;;;;5032715;28;19913;-81
2022/05/22 01:52:08;;;;;;;;;;;13.40;99.90;;;;;;5036458;28;19913;-82
2022/05/22 01:54:33;;;;;;;;;;;13.40;99.90;;;;;;5035612;28;19924;-82
2022/05/22 01:56:58;;;;;;;;;;;13.30;99.90;;;;;;5035690;28;19925;-82
2022/05/22 01:59:24;;;;;;;;;;;13.30;99.90;;;;;;5035343;28;19909;-82
2022/05/22 02:01:49;;;;;;;;;;;13.30;1.00;;;;;;5035519;28;20410;-82
2022/05/22 02:04:15;;;;;;;;;;;13.20;1.00;;;;;;5035483;28;20324;-82
2022/05/22 02:08:19;;;;;;;;;;;13.20;1.00;;;;;;5035028;28;19945;-81
2022/05/22 02:09:26;;;;;;;;;;;13.20;70.60;;;;;;5032983;28;19968;-82
2022/05/22 02:11:51;;;;;;;;;;;13.20;1.00;;;;;;5034979;28;20325;-82
2022/05/22 02:14:17;;;;;;;;;;;13.20;1.00;;;;;;5035190;28;19912;-82
2022/05/22 02:16:42;;;;;;;;;;;13.10;99.90;;;;;;5035565;28;19943;-82
2022/05/22 02:19:08;;;;;;;;;;;13.00;1.00;;;;;;5032770;28;19920;-81
2022/05/22 02:21:33;;;;;;;;;;;12.90;1.00;;;;;;5036202;28;19909;-81
2022/05/22 02:23:59;;;;;;;;;;;12.90;1.00;;;;;;5033705;28;19913;-82
2022/05/22 02:26:24;;;;;;;;;;;12.90;1.00;;;;;;5035061;28;19913;-82
2022/05/22 02:28:50;;;;;;;;;;;12.80;1.00;;;;;;5036724;28;19963;-82
2022/05/22 02:31:15;;;;;;;;;;;12.80;33.40;;;;;;5043060;28;19913;-81
2022/05/22 02:33:40;;;;;;;;;;;12.90;99.90;;;;;;5036632;28;20301;-81
2022/05/22 02:36:08;;;;;;;;;;;12.90;62.40;;;;;;5035090;28;19948;-82
2022/05/22 02:38:34;;;;;;;;;;;12.90;54.20;;;;;;5035754;28;19917;-82
2022/05/22 02:41:00;;;;;;;;;;;12.90;77.40;;;;;;5026946;28;19924;-82
2022/05/22 02:43:25;;;;;;;;;;;12.90;69.10;;;;;;5034366;28;19913;-82
2022/05/22 02:45:51;;;;;;;;;;;12.90;65.00;;;;;;5034534;28;19936;-82
2022/05/22 02:48:16;;;;;;;;;;;12.80;33.00;;;;;;5034389;28;20020;-81
2022/05/22 02:50:45;;;;;;;;;;;12.80;1.00;;;;;;5034944;28;20131;-80
2022/05/22 02:53:11;;;;;;;;;;;12.80;1.00;;;;;;5033139;28;20000;-82
2022/05/22 02:55:36;;;;;;;;;;;12.70;1.00;;;;;;5035505;28;19956;-82
2022/05/22 02:58:02;;;;;;;;;;;12.70;1.00;;;;;;5032500;28;20435;-81
2022/05/22 03:00:30;;;;;;;;;;;12.70;1.00;;;;;;5035180;28;20001;-81
2022/05/22 03:02:56;;;;;;;;;;;12.70;1.00;;;;;;5031495;28;19914;-82
2022/05/22 03:05:21;;;;;;;;;;;12.70;46.40;;;;;;5035211;28;20010;-82
2022/05/22 03:07:47;;;;;;;;;;;12.70;70.00;;;;;;5033954;28;19913;-82
2022/05/22 03:10:13;;;;;;;;;;;12.70;47.80;;;;;;5034332;28;19940;-80
2022/05/22 03:12:39;;;;;;;;;;;12.70;43.60;;;;;;5033791;28;19913;-82
2022/05/22 03:15:06;;;;;;;;;;;12.60;29.60;;;;;;5032208;28;19940;-82
2022/05/22 03:17:31;;;;;;;;;;;12.60;31.60;;;;;;5036262;28;19913;-80
2022/05/22 03:19:56;;;;;;;;;;;12.60;35.60;;;;;;5034651;28;19970;-80
2022/05/22 03:22:22;;;;;;;;;;;12.60;91.40;;;;;;5039164;28;19917;-80
2022/05/22 03:24:48;;;;;;;;;;;12.60;99.90;;;;;;5037637;28;19913;-80
2022/05/22 03:27:15;;;;;;;;;;;12.60;99.90;;;;;;5038067;28;19924;-80
2022/05/22 03:29:41;;;;;;;;;;;12.60;99.90;;;;;;5038300;28;19913;-80
2022/05/22 03:32:07;;;;;;;;;;;12.70;99.90;;;;;;5036915;28;20028;-80
2022/05/22 03:34:33;;;;;;;;;;;12.70;99.90;;;;;;5039057;28;19963;-80
2022/05/22 03:36:59;;;;;;;;;;;12.60;99.90;;;;;;5037091;28;19924;-80
2022/05/22 03:39:24;;;;;;;;;;;12.60;99.90;;;;;;5038255;28;19917;-81
2022/05/22 03:41:50;;;;;;;;;;;12.70;99.90;;;;;;5038488;28;19913;-80
2022/05/22 03:44:15;;;;;;;;;;;12.70;99.90;;;;;;5038214;28;20297;-81
2022/05/22 03:46:41;;;;;;;;;;;12.70;99.90;;;;;;5039107;28;19913;-81
2022/05/22 03:49:06;;;;;;;;;;;12.80;99.90;;;;;;5036956;28;20008;-81
2022/05/22 03:51:32;;;;;;;;;;;12.80;99.90;;;;;;5040548;28;19917;-80
2022/05/22 03:53:58;;;;;;;;;;;12.80;99.90;;;;;;5037021;28;19921;-80
2022/05/22 03:56:24;;;;;;;;;;;12.80;99.90;;;;;;5039997;28;19917;-80
2022/05/22 03:58:49;;;;;;;;;;;12.80;99.90;;;;;;5037243;28;20413;-80
2022/05/22 04:01:15;;;;;;;;;;;12.90;99.90;;;;;;5037686;28;19920;-81
2022/05/22 04:03:40;;;;;;;;;;;12.90;99.90;;;;;;5037856;28;19913;-80
2022/05/22 04:06:07;;;;;;;;;;;12.90;99.90;;;;;;5036501;28;20305;-80
2022/05/22 04:08:33;;;;;;;;;;;13.00;99.90;;;;;;5038238;28;19923;-81
2022/05/22 04:11:04;;;;;;;;;;;13.00;97.70;;;;;;5036067;28;19917;-80
2022/05/22 04:13:30;;;;;;;;;;;13.00;88.70;;;;;;5032679;28;19967;-80
2022/05/22 04:15:55;;;;;;;;;;;13.00;38.00;;;;;;5037575;28;20336;-80
2022/05/22 04:18:21;;;;;;;;;;;13.00;19.60;;;;;;5038219;28;19913;-81
2022/05/22 04:20:46;;;;;;;;;;;13.00;24.70;;;;;;5061780;22;19947;-83
2022/05/22 04:25:57;;;;;;;;;;;13.10;1.00;;;;;;5038128;28;19971;-83
2022/05/22 04:28:23;;;;;;;;;;;13.20;1.00;;;;;;5036329;28;19967;-84
2022/05/22 04:30:49;;;;;;;;;;;13.20;1.00;;;;;;5037799;28;19909;-85
2022/05/22 04:33:15;;;;;;;;;;;13.20;1.00;;;;;;5036868;28;20385;-83
2022/05/22 04:35:40;;;;;;;;;;;13.20;1.00;;;;;;5037317;28;19921;-84
2022/05/22 04:38:06;;;;;;;;;;;13.10;1.00;;;;;;5021285;28;19913;-84
2022/05/22 04:40:31;;;;;;;;;;;13.20;1.00;;;;;;5038665;28;19913;-83
2022/05/22 04:42:57;;;;;;;;;;;13.20;1.00;;;;;;5019603;28;20377;-84
2022/05/22 04:45:22;;;;;;;;;;;13.10;46.50;;;;;;5022538;28;20381;-84
2022/05/22 04:47:48;;;;;;;;;;;13.30;49.10;;;;;;5022268;28;19909;-83
2022/05/22 04:50:14;;;;;;;;;;;13.40;1.00;;;;;;5045422;28;19912;-84
2022/05/22 04:52:39;;;;;;;;;;;13.50;1.00;;;;;;5023678;28;19964;-84
2022/05/22 04:55:05;;;;;;;;;;;13.70;1.00;;;;;;5020671;28;20381;-84
2022/05/22 04:57:31;;;;;;;;;;;13.80;99.90;;;;;;5036895;28;19921;-84
2022/05/22 04:59:56;;;;;;;;;;;13.90;99.90;;;;;;5035753;28;20377;-84
2022/05/22 05:02:23;;;;;;;;;;;14.00;99.90;;;;;;5036759;28;19917;-84
2022/05/22 05:04:48;;;;;;;;;;;14.20;1.00;;;;;;5035527;28;20404;-84
2022/05/22 05:07:14;;;;;;;;;;;14.30;99.90;;;;;;5036453;28;19914;-84
2022/05/22 05:09:39;;;;;;;;;;;14.40;1.00;;;;;;5036232;28;19909;-85
2022/05/22 05:12:05;;;;;;;;;;;14.50;1.00;;;;;;5037276;28;19917;-84
2022/05/22 05:14:31;;;;;;;;;;;14.60;1.00;;;;;;5033360;28;19920;-84
2022/05/22 05:16:56;;;;;;;;;;;14.80;99.90;;;;;;5036776;28;19913;-85
2022/05/22 05:19:22;;;;;;;;;;;15.10;1.00;;;;;;5041252;28;19956;-83
2022/05/22 05:21:47;;;;;;;;;;;15.20;1.00;;;;;;5018814;28;19917;-84
2022/05/22 05:24:13;;;;;;;;;;;15.30;99.90;;;;;;5020703;28;19925;-84
2022/05/22 05:26:38;;;;;;;;;;;15.50;99.90;;;;;;5041247;28;19960;-84
2022/05/22 05:29:04;;;;;;;;;;;15.60;1.00;;;;;;5038828;28;19913;-84
2022/05/22 05:31:29;;;;;;;;;;;15.60;99.90;;;;;;5044190;28;19913;-84
2022/05/22 05:33:55;;;;;;;;;;;15.80;99.90;;;;;;5038580;28;19959;-84
2022/05/22 05:36:20;;;;;;;;;;;16.00;99.90;;;;;;5054447;28;20301;-82
2022/05/22 05:38:46;;;;;;;;;;;16.20;1.00;;;;;;5053450;28;19956;-82
2022/05/22 05:41:12;;;;;;;;;;;16.40;1.00;;;;;;5041929;28;19925;-82
2022/05/22 05:43:37;;;;;;;;;;;16.40;99.90;;;;;;5040861;28;19914;-82
2022/05/22 05:46:03;;;;;;;;;;;16.60;99.90;;;;;;5023284;28;19913;-82
2022/05/22 05:48:28;;;;;;;;;;;16.80;47.20;;;;;;5043817;28;19948;-82
2022/05/22 05:50:55;;;;;;;;;;;17.20;1.00;;;;;;5043488;28;19979;-83
2022/05/22 05:53:21;;;;;;;;;;;17.90;1.00;;;;;;5021118;28;19913;-83
2022/05/22 05:55:47;;;;;;;;;;;18.90;99.90;;;;;;5035273;28;20396;-83
2022/05/22 05:58:13;;;;;;;;;;;20.40;1.00;;;;;;5025357;28;19964;-83
2022/05/22 06:00:39;;;;;;;;;;;22.10;99.90;;;;;;5045609;28;19913;-83
2022/05/22 06:03:05;;;;;;;;;;;23.80;99.90;;;;;;5023389;28;19914;-83
2022/05/22 06:05:30;;;;;;;;;;;25.70;99.90;;;;;;5033629;28;19940;-84
2022/05/22 06:07:56;;;;;;;;;;;27.60;99.90;;;;;;5026813;28;19921;-83
2022/05/22 06:10:21;;;;;;;;;;;28.90;99.90;;;;;;5034894;28;19921;-84
2022/05/22 06:12:47;;;;;;;;;;;29.80;99.90;;;;;;5042952;28;19944;-83
2022/05/22 06:15:13;;;;;;;;;;;31.00;99.90;;;;;;5036222;28;19970;-84
2022/05/22 06:17:43;;;;;;;;;;;33.00;99.90;;;;;;5035994;28;19913;-84
2022/05/22 06:20:10;;;;;;;;;;;34.30;99.90;;;;;;5022403;28;19924;-83
2022/05/22 06:22:35;;;;;;;;;;;35.10;99.90;;;;;;5041479;28;19924;-84
2022/05/22 06:25:02;;;;;;;;;;;34.60;99.90;;;;;;5034161;28;19909;-82
2022/05/22 06:27:28;;;;;;;;;;;35.40;99.90;;;;;;5040000;28;19917;-84
2022/05/22 06:29:53;;;;;;;;;;;35.90;99.90;;;;;;5031224;28;19947;-83
2022/05/22 06:32:19;;;;;;;;;;;36.50;99.90;;;;;;5022489;28;19909;-83
2022/05/22 06:34:47;;;;;;;;;;;38.10;99.90;;;;;;5036339;28;19964;-83
2022/05/22 06:37:13;;;;;;;;;;;39.30;99.90;;;;;;5041771;28;19939;-83
2022/05/22 06:39:51;;;;;;;;;;;38.80;99.90;;;;;;5033159;28;19986;-84
2022/05/22 06:42:22;;;;;;;;;;;38.40;99.90;;;;;;5039849;28;19956;-84
2022/05/22 06:44:51;;;;;;;;;;;38.50;99.90;;;;;;5041417;28;19939;-84
2022/05/22 06:47:17;;;;;;;;;;;40.90;99.90;;;;;;5040977;28;19917;-84
2022/05/22 06:49:43;;;;;;;;;;;42.20;99.90;;;;;;5044394;28;19920;-84
2022/05/22 06:52:08;;;;;;;;;;;43.20;99.90;;;;;;5024268;28;19918;-84
2022/05/22 06:54:34;;;;;;;;;;;44.00;99.90;;;;;;5053085;28;19909;-83
2022/05/22 06:57:00;;;;;;;;;;;44.70;99.90;;;;;;5041495;28;19917;-84
2022/05/22 06:59:25;;;;;;;;;;;45.00;99.90;;;;;;5045057;28;19920;-83
2022/05/22 07:01:51;;;;;;;;;;;45.90;99.90;;;;;;5042043;28;19913;-84
2022/05/22 07:04:16;;;;;;;;;;;46.40;99.90;;;;;;5043121;28;19964;-84
2022/05/22 07:06:41;;;;;;;;;;;45.80;99.90;;;;;;5045156;28;19929;-84
2022/05/22 07:09:07;;;;;;;;;;;46.80;99.90;;;;;;5038214;28;19913;-84
2022/05/22 07:11:39;;;;;;;;;;;47.90;99.90;;;;;;5042028;28;19912;-85
2022/05/22 07:14:08;;;;;;;;;;;48.80;99.90;;;;;;5041930;28;19935;-84
2022/05/22 07:16:35;;;;;;;;;;;48.70;99.90;;;;;;5025815;28;20250;-85
2022/05/22 07:19:00;;;;;;;;;;;49.20;99.90;;;;;;5021325;28;19968;-84
2022/05/22 07:21:26;;;;;;;;;;;50.10;99.90;;;;;;5040399;28;19917;-84
2022/05/22 07:23:52;;;;;;;;;;;50.30;99.90;;;;;;5034283;28;19913;-84
2022/05/22 07:26:19;;;;;;;;;;;50.40;99.90;;;;;;5036231;28;19916;-84
2022/05/22 07:28:45;;;;;;;;;;;50.60;99.90;;;;;;5033790;28;19917;-84
2022/05/22 07:31:14;;;;;;;;;;;50.30;99.90;;;;;;5029112;28;20384;-84
2022/05/22 07:33:40;;;;;;;;;;;50.50;99.90;;;;;;5030761;28;19913;-83
2022/05/22 07:36:05;;;;;;;;;;;49.90;99.90;;;;;;5016933;28;19913;-83
2022/05/22 07:38:31;;;;;;;;;;;50.00;99.90;;;;;;5033829;28;19966;-83
2022/05/22 07:40:56;;;;;;;;;;;49.80;99.90;;;;;;5033503;28;19920;-83
2022/05/22 07:43:22;;;;;;;;;;;50.50;99.90;;;;;;5033497;28;20433;-83
2022/05/22 07:45:47;;;;;;;;;;;51.10;99.90;;;;;;5032727;28;19974;-84
2022/05/22 07:48:13;;;;;;;;;;;50.70;99.90;;;;;;5030681;28;19913;-84
2022/05/22 07:50:39;;;;;;;;;;;51.10;99.90;;;;;;5033034;28;19913;-83
2022/05/22 07:53:05;;;;;;;;;;;51.20;99.90;;;;;;5031772;28;19917;-83
2022/05/22 07:55:30;;;;;;;;;;;51.30;99.90;;;;;;5017006;28;19985;-83
2022/05/22 07:57:56;;;;;;;;;;;50.60;99.90;;;;;;5034595;28;20373;-83
2022/05/22 08:00:21;;;;;;;;;;;49.60;99.90;;;;;;5031361;28;19924;-82
2022/05/22 08:02:47;;;;;;;;;;;48.10;99.90;;;;;;5035867;28;19920;-84
2022/05/22 08:05:14;;;;;;;;;;;47.30;99.90;;;;;;5033963;28;20009;-83
2022/05/22 08:07:39;;;;;;;;;;;46.30;98.90;;;;;;5037253;28;19913;-83
2022/05/22 08:10:06;;;;;;;;;;;45.30;97.50;;;;;;5036346;28;19935;-83
2022/05/22 08:12:35;;;;;;;;;;;43.90;95.00;;;;;;5036605;28;19936;-82
2022/05/22 08:15:01;;;;;;;;;;;43.40;94.90;;;;;;5036348;28;19913;-83
2022/05/22 08:17:29;;;;;;;;;;;42.80;94.20;;;;;;5022471;28;19909;-83
2022/05/22 08:19:54;;;;;;;;;;;42.50;93.70;;;;;;5035522;28;20436;-83
2022/05/22 08:22:20;;;;;;;;;;;42.40;93.70;;;;;;5024618;28;19909;-83
2022/05/22 08:24:45;;;;;;;;;;;42.30;93.80;;;;;;5040471;28;19913;-83
2022/05/22 08:27:11;;;;;;;;;;;42.60;95.10;;;;;;5034226;28;20007;-83
2022/05/22 08:29:36;;;;;;;;;;;43.50;97.30;;;;;;5037011;28;19975;-84
2022/05/22 08:32:02;;;;;;;;;;;44.70;98.20;;;;;;5038156;28;19971;-83
2022/05/22 08:34:27;;;;;;;;;;;45.90;99.90;;;;;;5034794;28;19968;-83
2022/05/22 08:36:53;;;;;;;;;;;47.20;99.90;;;;;;5028037;28;19946;-84
2022/05/22 08:39:18;;;;;;;;;;;47.00;99.90;;;;;;5032970;28;19920;-83
2022/05/22 08:41:46;;;;;;;;;;;46.30;99.50;;;;;;5034202;28;19917;-83
2022/05/22 08:44:14;;;;;;;;;;;46.80;99.90;;;;;;5017471;28;20349;-82
2022/05/22 08:46:55;;;;;;;;;;;46.10;98.30;;;;;;5035682;28;19917;-84
2022/05/22 08:49:23;;;;;;;;;;;46.10;97.30;;;;;;5035159;28;19995;-83
2022/05/22 08:51:54;;;;;;;;;;;45.80;96.30;;;;;;5036495;28;20266;-83
2022/05/22 08:54:26;;;;;;;;;;;46.20;97.40;;;;;;5034316;28;19924;-83
2022/05/22 08:59:39;;;;;;;;;;;45.10;94.70;;;;;;5038286;28;20312;-82
2022/05/22 09:02:23;;;;;;;;;;;43.80;92.60;;;;;;5037003;28;20008;-83
2022/05/22 09:05:10;;;;;;;;;;;43.70;92.30;;;;;;5057704;28;19920;-83
2022/05/22 09:07:44;;;;;;;;;;;43.80;92.80;;;;;;5040973;28;19921;-82
2022/05/22 09:10:13;;;;;;;;;;;43.80;92.30;;;;;;5039282;28;19917;-83
2022/05/22 09:12:47;;;;;;;;;;;44.10;93.50;;;;;;5040471;28;19917;-83
2022/05/22 09:15:31;;;;;;;;;;;44.40;93.90;;;;;;5038245;28;19913;-83
2022/05/22 09:18:04;;;;;;;;;;;44.50;93.90;;;;;;5041524;28;19920;-83
2022/05/22 09:20:41;;;;;;;;;;;45.10;94.30;;;;;;5034504;28;19917;-83
2022/05/22 09:23:26;;;;;;;;;;;44.10;92.30;;;;;;5040552;28;19913;-83
2022/05/22 09:26:10;;;;;;;;;;;44.00;92.40;;;;;;5038147;28;19932;-83
2022/05/22 09:28:53;;;;;;;;;;;43.50;91.00;;;;;;5039397;28;20305;-82
2022/05/22 09:31:45;;;;;;;;;;;43.80;91.90;;;;;;5036859;28;19996;-83
2022/05/22 09:34:16;;;;;;;;;;;44.80;93.40;;;;;;5008017;28;19913;-82
2022/05/22 09:36:48;;;;;;;;;;;43.20;90.40;;;;;;5025584;28;19917;-83
2022/05/22 09:39:19;;;;;;;;;;;42.50;87.20;;;;;;5039659;28;19918;-83
2022/05/22 09:41:53;;;;;;;;;;;42.60;87.40;;;;;;5040664;28;20004;-83
2022/05/22 09:44:26;;;;;;;;;;;43.10;90.20;;;;;;5039427;28;19936;-83
2022/05/22 09:47:11;;;;;;;;;;;43.50;90.50;;;;;;5039589;28;19917;-83
2022/05/22 09:49:54;;;;;;;;;;;43.70;90.90;;;;;;5040359;28;19913;-84
2022/05/22 09:52:21;;;;;;;;;;;43.10;87.90;;;;;;5039373;28;19924;-83
2022/05/22 09:55:02;;;;;;;;;;;43.80;90.10;;;;;;5025818;28;19944;-83
2022/05/22 09:57:28;;;;;;;;;;;42.30;84.20;;;;;;5038720;28;20008;-83
2022/05/22 10:00:03;;;;;;;;;;;41.80;81.30;;;;;;5055394;28;19948;-83
2022/05/22 10:02:38;;;;;;;;;;;42.60;83.30;;;;;;5040675;28;20484;-83
2022/05/22 10:05:03;;;;;;;;;;;43.00;84.40;;;;;;5057483;28;19920;-83
2022/05/22 10:07:36;;;;;;;;;;;43.00;83.90;;;;;;5039468;28;20292;-83
2022/05/22 10:10:01;;;;;;;;;;;42.50;81.10;;;;;;5023833;28;19940;-83
2022/05/22 10:12:27;;;;;;;;;;;42.70;81.50;;;;;;5038810;28;19992;-83
2022/05/22 10:15:11;;;;;;;;;;;41.90;77.30;;;;;;5042010;28;19913;-83
2022/05/22 10:17:52;;;;;;;;;;;42.50;80.00;;;;;;5055934;28;20366;-82
2022/05/22 10:20:40;;;;;;;;;;;43.80;83.00;;;;;;5038332;28;19921;-83
2022/05/22 10:23:12;;;;;;;;;;;43.60;82.50;;;;;;5072331;22;19925;-78
2022/05/22 10:25:40;;;;;;;;;;;43.50;81.10;;;;;;5067139;28;19917;-78
2022/05/22 10:28:11;;;;;;;;;;;44.20;83.30;;;;;;5073912;28;20480;-79
2022/05/22 10:30:47;;;;;;;;;;;44.30;82.60;;;;;;5071873;28;19961;-78
2022/05/22 10:33:22;;;;;;;;;;;44.70;85.30;;;;;;5041243;28;20322;-79
2022/05/22 10:35:50;;;;;;;;;;;44.90;83.20;;;;;;5034478;28;19912;-78
2022/05/22 10:38:15;;;;;;;;;;;44.80;80.90;;;;;;5051095;28;19921;-78
2022/05/22 10:43:35;;;;;;;;;;;43.60;76.70;;;;;;5038710;28;20020;-78
2022/05/22 10:46:01;;;;;;;;;;;43.90;77.00;;;;;;5028230;28;19917;-79
2022/05/22 10:48:28;;;;;;;;;;;44.40;78.80;;;;;;5050358;28;20459;-78
2022/05/22 10:50:55;;;;;;;;;;;44.50;78.00;;;;;;5056941;28;19913;-78
2022/05/22 10:53:26;;;;;;;;;;;43.80;78.10;;;;;;5038090;28;20377;-77
2022/05/22 10:55:58;;;;;;;;;;;43.70;75.10;;;;;;5047809;28;19920;-78
2022/05/22 10:58:29;;;;;;;;;;;42.20;70.50;;;;;;5033269;28;19912;-78
2022/05/22 11:00:56;;;;;;;;;;;42.00;70.00;;;;;;5032060;28;20342;-78
2022/05/22 11:03:26;;;;;;;;;;;42.10;71.20;;;;;;5051998;28;19966;-78
2022/05/22 11:05:52;;;;;;;;;;;41.90;70.30;;;;;;5045934;28;19921;-78
2022/05/22 11:08:25;;;;;;;;;;;41.30;68.70;;;;;;5032956;28;19919;-78
2022/05/22 11:10:50;;;;;;;;;;;40.40;66.00;;;;;;5053913;28;19959;-77
2022/05/22 11:13:20;;;;;;;;;;;40.80;68.70;;;;;;5053741;28;19917;-79
2022/05/22 11:15:46;;;;;;;;;;;41.10;71.00;;;;;;5045269;28;19913;-79
2022/05/22 11:18:17;;;;;;;;;;;40.70;68.70;;;;;;5052181;28;19913;-79
2022/05/22 11:20:48;;;;;;;;;;;41.30;72.10;;;;;;5052698;28;19913;-79
2022/05/22 11:23:23;;;;;;;;;;;41.10;70.40;;;;;;5048450;28;19940;-78
2022/05/22 11:26:18;;;;;;;;;;;41.50;73.10;;;;;;5046148;28;19924;-79
2022/05/22 11:28:53;;;;;;;;;;;41.60;73.50;;;;;;5014087;28;20362;-78
2022/05/22 11:31:21;;;;;;;;;;;40.30;68.00;;;;;;5041253;28;20285;-78
2022/05/22 11:34:04;;;;;;;;;;;39.70;64.40;;;;;;5035304;28;19913;-79
2022/05/22 11:36:45;;;;;;;;;;;38.60;80.90;;;;;;5053569;28;19913;-79
2022/05/22 11:39:29;;;;;;;;;;;38.70;64.30;;;;;;5036174;28;19960;-79
2022/05/22 11:42:10;;;;;;;;;;;39.50;67.60;;;;;;5040241;28;19982;-79
2022/05/22 11:44:44;;;;;;;;;;;39.50;68.90;;;;;;5058843;28;19921;-79
2022/05/22 11:47:22;;;;;;;;;;;39.10;66.10;;;;;;5059398;28;19917;-79
2022/05/22 11:49:56;;;;;;;;;;;38.50;64.40;;;;;;5049742;28;19936;-79
2022/05/22 11:55:20;;;;;;;;;;;38.90;66.70;;;;;;5046372;28;19928;-78
2022/05/22 11:57:51;;;;;;;;;;;39.10;68.70;;;;;;5055379;28;20054;-79
2022/05/22 12:00:25;;;;;;;;;;;39.40;70.10;;;;;;5046019;28;19912;-79
2022/05/22 12:02:59;;;;;;;;;;;39.30;68.80;;;;;;5052478;28;19924;-79
2022/05/22 12:05:33;;;;;;;;;;;39.40;69.70;;;;;;5053429;28;20351;-79
2022/05/22 12:08:19;;;;;;;;;;;38.50;64.90;;;;;;5046962;28;19913;-79
2022/05/22 12:11:14;;;;;;;;;;;38.40;65.70;;;;;;5042790;28;19924;-79
2022/05/22 12:13:47;;;;;;;;;;;38.50;65.70;;;;;;5036054;28;19919;-79
2022/05/22 12:16:18;;;;;;;;;;;38.50;65.70;;;;;;5052852;28;20373;-79
2022/05/22 12:18:53;;;;;;;;;;;38.70;67.00;;;;;;5045760;28;19913;-78
2022/05/22 12:21:37;;;;;;;;;;;38.40;66.10;;;;;;5048283;28;19913;-79
2022/05/22 12:24:21;;;;;;;;;;;38.30;65.90;;;;;;5041823;28;19960;-79
2022/05/22 12:26:47;;;;;;;;;;;38.30;66.50;;;;;;5032022;28;19917;-79
2022/05/22 12:29:25;;;;;;;;;;;38.10;66.50;;;;;;5041800;28;19921;-79
2022/05/22 12:31:58;;;;;;;;;;;38.10;67.10;;;;;;5046359;28;19913;-79
2022/05/22 12:34:32;;;;;;;;;;;37.80;66.90;;;;;;5040058;28;19913;-79
2022/05/22 12:36:59;;;;;;;;;;;37.80;67.30;;;;;;5045696;28;20339;-78
2022/05/22 12:39:27;;;;;;;;;;;37.80;84.90;;;;;;5045196;28;19926;-79
2022/05/22 12:41:52;;;;;;;;;;;36.70;64.70;;;;;;5028257;28;19948;-79
2022/05/22 12:44:18;;;;;;;;;;;36.30;63.10;;;;;;5025689;28;19952;-79
2022/05/22 12:46:43;;;;;;;;;;;36.50;65.60;;;;;;5045366;28;19917;-79
2022/05/22 12:49:38;;;;;;;;;;;35.80;63.40;;;;;;5032103;28;19919;-79
2022/05/22 12:52:06;;;;;;;;;;;35.90;63.90;;;;;;5027799;28;20388;-79
2022/05/22 12:54:36;;;;;;;;;;;35.90;64.20;;;;;;5046292;28;19919;-79
2022/05/22 12:57:10;;;;;;;;;;;35.40;62.50;;;;;;5034288;28;19940;-80
2022/05/22 12:59:36;;;;;;;;;;;34.60;61.60;;;;;;5047810;28;19920;-80
2022/05/22 13:02:02;;;;;;;;;;;34.30;60.50;;;;;;5029604;28;20506;-79
2022/05/22 13:04:50;;;;;;;;;;;34.10;60.60;;;;;;5044348;28;20002;-80
2022/05/22 13:07:18;;;;;;;;;;;33.90;61.40;;;;;;5052696;28;19917;-79
2022/05/22 13:09:45;;;;;;;;;;;33.70;61.90;;;;;;5055204;28;19913;-79
2022/05/22 13:12:15;;;;;;;;;;;33.00;59.50;;;;;;5056848;28;19913;-79
2022/05/22 13:14:41;;;;;;;;;;;32.50;59.70;;;;;;5052462;28;19931;-79
2022/05/22 13:17:08;;;;;;;;;;;32.60;59.90;;;;;;5037248;28;19917;-79
2022/05/22 13:19:34;;;;;;;;;;;32.50;60.70;;;;;;5058541;28;19913;-79
2022/05/22 13:22:22;;;;;;;;;;;32.30;61.20;;;;;;5050257;28;19963;-80
2022/05/22 13:24:49;;;;;;;;;;;32.50;63.80;;;;;;5050601;28;19920;-79
2022/05/22 13:27:30;;;;;;;;;;;32.60;64.30;;;;;;5054027;28;19921;-80
2022/05/22 13:30:08;;;;;;;;;;;32.50;65.80;;;;;;5044224;28;20192;-80
2022/05/22 13:32:41;;;;;;;;;;;32.30;64.20;;;;;;5036620;28;19913;-79
2022/05/22 13:35:16;;;;;;;;;;;32.20;66.50;;;;;;5048669;28;19933;-80
2022/05/22 13:37:46;;;;;;;;;;;32.30;68.10;;;;;;5044186;28;19923;-79
2022/05/22 13:40:14;;;;;;;;;;;32.10;66.00;;;;;;5032277;28;19912;-80
2022/05/22 13:42:51;;;;;;;;;;;31.90;66.50;;;;;;5047529;28;20561;-79
2022/05/22 13:45:16;;;;;;;;;;;31.60;65.90;;;;;;5046319;28;19966;-80
2022/05/22 13:47:54;;;;;;;;;;;31.70;66.80;;;;;;5045445;28;19936;-79
2022/05/22 13:53:29;;;;;;;;;;;31.70;66.90;;;;;;5052183;28;19920;-79
2022/05/22 13:55:56;;;;;;;;;;;31.70;67.10;;;;;;5042712;28;20442;-79
2022/05/22 13:58:21;;;;;;;;;;;31.50;65.70;;;;;;5044126;28;19913;-79
2022/05/22 14:00:48;;;;;;;;;;;30.20;60.60;;;;;;5037222;28;19917;-79
2022/05/22 14:03:16;;;;;;;;;;;29.70;61.50;;;;;;5048758;28;19913;-79
2022/05/22 14:05:43;;;;;;;;;;;29.50;60.90;;;;;;5048524;28;19932;-79
2022/05/22 14:08:19;;;;;;;;;;;29.10;77.40;;;;;;5030971;28;20277;-79
2022/05/22 14:10:45;;;;;;;;;;;28.80;60.00;;;;;;5038640;28;19920;-81
2022/05/22 14:13:22;;;;;;;;;;;28.90;60.90;;;;;;5030305;28;19913;-79
2022/05/22 14:15:58;;;;;;;;;;;29.00;62.70;;;;;;5053957;28;20308;-79
2022/05/22 14:18:25;;;;;;;;;;;29.10;63.40;;;;;;5039775;28;19920;-79
2022/05/22 14:20:52;;;;;;;;;;;28.80;62.90;;;;;;5046881;28;19945;-79
2022/05/22 14:23:20;;;;;;;;;;;28.50;62.50;;;;;;5071173;28;19942;-79
2022/05/22 14:25:46;;;;;;;;;;;28.50;62.30;;;;;;5062139;28;19920;-79
2022/05/22 14:28:13;;;;;;;;;;;28.60;62.70;;;;;;5053189;28;19912;-79
2022/05/22 14:30:39;;;;;;;;;;;28.70;64.00;;;;;;5035074;28;19919;-80
2022/05/22 14:33:08;;;;;;;;;;;28.90;64.70;;;;;;5041597;28;20015;-80
2022/05/22 14:35:44;;;;;;;;;;;29.10;67.20;;;;;;5046221;28;19917;-80
2022/05/22 14:38:23;;;;;;;;;;;29.30;68.00;;;;;;5038216;28;19927;-80
2022/05/22 14:40:59;;;;;;;;;;;29.10;66.20;;;;;;5052863;28;19971;-80
2022/05/22 14:43:26;;;;;;;;;;;29.30;67.30;;;;;;5041623;28;19943;-80
2022/05/22 14:45:55;;;;;;;;;;;29.20;66.90;;;;;;5058429;28;19913;-81